Time;durP1;ratioP1;P1;durP2;ratioP2;P2;SDS_P1;SDS_P2;PMS_P1;PMS_P2;Temp;Humidity;BMP_temperature;BMP_pressure;BME280_temperature;BME280_humidity;BME280_pressure;Samples;Min_cycle;Max_cycle;Signal;HPM_P1;HPM_P2
2023/06/12 00:02:48;;;;;;;0.35;0.35;;;;;;;15.31;82.25;99699.19;6297734;28;20052;-71
2023/06/12 00:05:49;;;;;;;1.00;0.40;;;;;;;15.35;81.41;99689.25;6296101;28;20056;-70
2023/06/12 00:08:50;;;;;;;0.50;0.50;;;;;;;15.41;82.71;99699.25;6297464;28;20044;-71
2023/06/12 00:11:51;;;;;;;0.47;0.47;;;;;;;15.49;80.62;99703.84;6296179;28;20600;-71
2023/06/12 00:14:51;;;;;;;0.75;0.43;;;;;;;15.43;81.60;99692.06;6296256;28;20102;-71
2023/06/12 00:17:54;;;;;;;2.17;0.55;;;;;;;15.29;81.80;99685.34;6297334;28;20094;-70
2023/06/12 00:20:56;;;;;;;1.00;0.80;;;;;;;15.39;81.22;99688.03;6296282;28;20084;-71
2023/06/12 00:23:56;;;;;;;1.13;0.53;;;;;;;15.43;79.80;99681.53;6297147;28;20109;-71
2023/06/12 00:26:57;;;;;;;0.57;0.50;;;;;;;15.39;80.37;99685.41;6295841;28;20364;-71
2023/06/12 00:29:58;;;;;;;0.65;0.65;;;;;;;15.32;80.55;99690.38;6295984;28;20097;-71
2023/06/12 00:32:59;;;;;;;3.67;0.75;;;;;;;15.32;80.81;99668.50;6295674;28;20049;-71
2023/06/12 00:35:59;;;;;;;0.60;0.60;;;;;;;15.34;80.89;99679.72;6295737;28;20041;-72
2023/06/12 00:39:00;;;;;;;0.50;0.50;;;;;;;15.28;82.64;99675.00;6295586;28;20055;-71
2023/06/12 00:42:01;;;;;;;0.60;0.60;;;;;;;15.19;81.20;99676.59;6296775;28;20402;-71
2023/06/12 00:45:02;;;;;;;0.82;0.68;;;;;;;15.19;81.95;99673.16;6295086;28;20135;-70
2023/06/12 00:48:05;;;;;;;0.60;0.35;;;;;;;15.19;81.75;99673.97;6295868;28;20053;-71
2023/06/12 00:51:08;;;;;;;0.70;0.52;;;;;;;15.42;80.84;99684.28;6296778;28;20131;-71
2023/06/12 00:54:09;;;;;;;0.95;0.60;;;;;;;15.18;81.03;99674.97;6296927;28;20045;-71
2023/06/12 00:57:11;;;;;;;0.80;0.35;;;;;;;15.28;80.44;99675.81;6295495;28;20044;-72
2023/06/12 01:00:14;;;;;;;4.13;0.80;;;;;;;15.33;80.55;99672.78;6296490;28;20049;-72
2023/06/12 01:03:15;;;;;;;3.50;0.75;;;;;;;15.35;80.92;99667.41;6296620;28;20056;-72
2023/06/12 01:06:22;;;;;;;0.75;0.60;;;;;;;15.31;80.03;99669.47;6298154;28;20413;-71
2023/06/12 01:09:36;;;;;;;0.30;0.30;;;;;;;15.28;80.46;99665.31;6300442;28;20044;-72
2023/06/12 01:12:40;;;;;;;0.60;0.50;;;;;;;15.30;79.32;99668.63;6301453;28;20052;-72
2023/06/12 01:15:43;;;;;;;0.63;0.43;;;;;;;15.35;80.02;99656.88;6300196;28;20044;-72
2023/06/12 01:18:46;;;;;;;0.82;0.50;;;;;;;15.10;80.23;99666.91;6299985;28;20147;-72
2023/06/12 01:21:57;;;;;;;0.45;0.45;;;;;;;15.17;80.40;99669.81;6300134;28;20158;-72
2023/06/12 01:25:35;;;;;;;0.57;0.52;;;;;;;15.36;80.53;99666.44;6301088;28;20057;-72
2023/06/12 01:28:48;;;;;;;1.40;0.80;;;;;;;15.19;80.17;99667.91;6299760;28;20059;-72
2023/06/12 01:31:59;;;;;;;;;;;;;;;15.30;79.79;99671.25;6301744;28;20048;-72
2023/06/12 01:35:16;;;;;;;0.60;0.60;;;;;;;15.35;80.43;99670.03;6300944;28;20516;-72
2023/06/12 01:38:20;;;;;;;0.77;0.60;;;;;;;15.23;80.18;99669.28;6301064;28;20044;-71
2023/06/12 01:41:25;;;;;;;2.05;0.80;;;;;;;15.22;81.51;99667.66;6300835;28;20503;-71
2023/06/12 01:44:26;;;;;;;1.15;0.60;;;;;;;15.07;81.83;99665.38;6300632;28;20048;-71
2023/06/12 01:47:27;;;;;;;0.90;0.70;;;;;;;14.93;82.43;99668.34;6300508;28;20509;-71
2023/06/12 01:50:27;;;;;;;3.35;1.05;;;;;;;14.83;81.83;99660.41;6300899;28;20513;-70
2023/06/12 01:53:30;;;;;;;1.55;0.95;;;;;;;14.97;81.77;99654.00;6300642;28;20045;-70
2023/06/12 01:56:31;;;;;;;2.22;0.98;;;;;;;14.86;82.21;99670.66;6300370;28;20417;-70
2023/06/12 01:59:34;;;;;;;1.80;0.88;;;;;;;14.90;81.79;99660.72;6299419;28;20140;-71
2023/06/12 02:02:36;;;;;;;1.10;0.98;;;;;;;14.86;82.46;99668.00;6300219;28;20083;-71
2023/06/12 02:05:36;;;;;;;1.20;0.90;;;;;;;14.81;82.23;99661.50;6300453;28;20044;-71
2023/06/12 02:08:37;;;;;;;1.35;1.25;;;;;;;14.74;82.12;99673.47;6298959;28;20074;-71
2023/06/12 02:11:39;;;;;;;1.30;1.00;;;;;;;14.76;82.37;99672.38;6299027;28;20498;-71
2023/06/12 02:14:41;;;;;;;0.93;0.60;;;;;;;14.73;81.92;99677.09;6298833;28;20049;-71
2023/06/12 02:17:42;;;;;;;0.85;0.80;;;;;;;14.62;81.98;99668.31;6298534;28;20055;-72
2023/06/12 02:20:43;;;;;;;1.20;0.98;;;;;;;14.49;82.83;99678.97;6299976;28;20063;-71
2023/06/12 02:23:44;;;;;;;2.58;0.90;;;;;;;14.45;83.09;99668.84;6298811;28;20048;-72
2023/06/12 02:26:44;;;;;;;3.83;0.98;;;;;;;14.46;82.93;99670.53;6299700;28;20056;-71
2023/06/12 02:29:45;;;;;;;1.42;0.93;;;;;;;14.56;83.90;99671.47;6299565;28;20054;-71
2023/06/12 02:32:49;;;;;;;0.63;0.60;;;;;;;14.56;82.46;99668.84;6299798;28;20063;-72
2023/06/12 02:35:50;;;;;;;0.73;0.70;;;;;;;14.62;81.66;99676.19;6299380;28;20106;-71
2023/06/12 02:38:51;;;;;;;0.82;0.70;;;;;;;14.53;82.47;99671.66;6299209;28;20131;-71
2023/06/12 02:41:52;;;;;;;3.47;1.00;;;;;;;14.58;82.97;99673.94;6299334;28;20053;-71
2023/06/12 02:44:52;;;;;;;1.08;0.85;;;;;;;14.43;82.84;99673.41;6297961;28;20302;-71
2023/06/12 02:47:53;;;;;;;1.52;0.95;;;;;;;14.53;83.52;99679.53;6298146;28;20053;-71
2023/06/12 02:50:56;;;;;;;1.75;1.02;;;;;;;14.45;82.72;99674.09;6298321;28;20056;-70
2023/06/12 02:53:57;;;;;;;1.00;0.70;;;;;;;14.47;84.22;99677.44;6298203;28;20526;-70
2023/06/12 02:57:00;;;;;;;1.35;0.70;;;;;;;14.53;82.65;99666.41;6297715;28;20049;-70
2023/06/12 03:00:01;;;;;;;1.52;0.80;;;;;;;14.39;83.65;99679.84;6297859;28;20053;-72
2023/06/12 03:03:02;;;;;;;0.90;0.80;;;;;;;14.43;85.25;99676.88;6298922;28;20051;-72
2023/06/12 03:06:03;;;;;;;0.60;0.60;;;;;;;14.42;84.51;99688.31;6299008;28;20126;-70
2023/06/12 03:09:05;;;;;;;1.00;0.80;;;;;;;14.37;85.94;99682.63;6298613;28;20056;-71
2023/06/12 03:12:08;;;;;;;1.17;0.98;;;;;;;14.54;84.17;99685.63;6298889;28;20048;-70
2023/06/12 03:15:10;;;;;;;1.60;0.90;;;;;;;14.68;84.19;99688.81;6298525;28;20048;-71
2023/06/12 03:18:10;;;;;;;2.08;1.00;;;;;;;14.59;82.10;99691.38;6298471;28;20486;-70
2023/06/12 03:21:14;;;;;;;1.48;0.90;;;;;;;14.63;81.84;99695.41;6297475;28;20048;-71
2023/06/12 03:24:15;;;;;;;2.00;0.93;;;;;;;14.65;82.60;99696.09;6298611;28;20056;-70
2023/06/12 03:27:15;;;;;;;0.93;0.73;;;;;;;14.45;83.73;99697.72;6297053;28;20053;-71
2023/06/12 03:30:19;;;;;;;1.00;0.75;;;;;;;14.47;82.83;99696.63;6297388;28;20483;-71
2023/06/12 03:33:20;;;;;;;0.88;0.75;;;;;;;14.63;82.66;99703.28;6298294;28;20052;-70
2023/06/12 03:36:43;;;;;;;2.83;1.17;;;;;;;14.78;81.42;99703.78;6298122;28;20049;-71
2023/06/12 03:39:43;;;;;;;0.90;0.70;;;;;;;14.74;81.45;99705.81;6297732;28;20056;-71
2023/06/12 03:42:43;;;;;;;1.15;0.88;;;;;;;14.75;81.49;99698.78;6297805;28;20131;-72
2023/06/12 03:45:44;;;;;;;0.93;0.70;;;;;;;14.68;80.47;99698.47;6297630;28;20052;-71
2023/06/12 03:48:45;;;;;;;1.42;0.95;;;;;;;14.68;81.47;99701.09;6296580;28;20048;-71
2023/06/12 03:51:48;;;;;;;9.88;1.25;;;;;;;14.44;81.57;99690.81;6296778;28;20192;-71
2023/06/12 03:54:49;;;;;;;1.42;0.80;;;;;;;14.50;80.25;99690.31;6296571;28;20067;-71
2023/06/12 03:57:50;;;;;;;1.30;1.08;;;;;;;14.61;80.38;99699.94;6296666;28;20537;-72
2023/06/12 04:00:50;;;;;;;1.70;1.05;;;;;;;14.54;81.25;99698.75;6297652;28;20051;-71
2023/06/12 04:03:53;;;;;;;5.50;1.08;;;;;;;14.55;80.70;99701.25;6297607;28;20097;-72
2023/06/12 04:06:54;;;;;;;1.77;1.30;;;;;;;14.77;81.00;99705.56;6296329;28;20088;-72
2023/06/12 04:09:55;;;;;;;0.87;0.70;;;;;;;14.73;79.42;99698.09;6296083;28;20075;-71
2023/06/12 04:12:56;;;;;;;1.15;0.80;;;;;;;14.65;78.85;99702.19;6297592;28;20485;-71
2023/06/12 04:15:57;;;;;;;1.95;0.95;;;;;;;14.60;79.64;99709.63;6296094;28;20063;-70
2023/06/12 04:19:03;;;;;;;1.27;0.95;;;;;;;14.66;78.12;99703.88;6297326;28;20053;-70
2023/06/12 04:22:05;;;;;;;0.77;0.77;;;;;;;14.89;78.91;99712.44;6297189;28;20080;-70
2023/06/12 04:25:06;;;;;;;2.95;1.08;;;;;;;15.02;78.01;99706.13;6297316;28;20502;-70
2023/06/12 04:28:13;;;;;;;1.60;1.13;;;;;;;14.96;77.13;99710.09;6295859;28;20479;-71
2023/06/12 04:31:15;;;;;;;5.35;0.85;;;;;;;15.07;76.98;99706.56;6296122;28;20183;-70
2023/06/12 04:34:16;;;;;;;1.23;0.98;;;;;;;15.42;75.66;99710.59;6295879;28;20044;-71
2023/06/12 04:37:18;;;;;;;1.90;1.05;;;;;;;15.14;75.45;99714.78;6297264;28;20131;-71
2023/06/12 04:40:20;;;;;;;;;;;;;;;15.18;75.77;99714.38;6297067;28;20516;-70
2023/06/12 04:43:21;;;;;;;1.07;0.90;;;;;;;15.24;75.60;99708.59;6295469;28;19955;-71
2023/06/12 04:46:22;;;;;;;1.27;1.07;;;;;;;15.17;75.92;99710.06;6296973;28;20048;-72
2023/06/12 04:49:22;;;;;;;2.15;0.82;;;;;;;15.16;74.26;99720.72;6296747;28;20044;-70
2023/06/12 04:52:29;;;;;;;2.70;0.88;;;;;;;15.00;75.11;99719.38;6295777;28;20463;-71
2023/06/12 04:55:31;;;;;;;1.50;1.10;;;;;;;15.19;75.93;99715.19;6296766;28;20091;-72
2023/06/12 04:58:33;;;;;;;1.33;1.02;;;;;;;15.14;74.02;99715.59;6296555;28;20060;-72
2023/06/12 05:01:33;;;;;;;7.20;1.15;;;;;;;15.19;74.18;99723.09;6296680;28;20418;-71
2023/06/12 05:04:38;;;;;;;1.15;1.05;;;;;;;15.39;74.88;99724.00;6296743;28;20093;-72
2023/06/12 05:07:41;;;;;;;4.68;0.80;;;;;;;15.46;74.64;99718.09;6296593;28;20049;-71
2023/06/12 05:10:42;;;;;;;4.80;1.20;;;;;;;15.60;73.35;99710.78;6296533;28;20391;-70
2023/06/12 05:13:43;;;;;;;2.72;1.00;;;;;;;15.51;72.71;99718.50;6296258;28;20071;-71
2023/06/12 05:16:46;;;;;;;1.75;1.05;;;;;;;15.73;71.67;99715.81;6295038;28;20052;-70
2023/06/12 05:19:48;;;;;;;1.48;0.90;;;;;;;15.83;72.11;99721.94;6296334;28;20067;-70
2023/06/12 05:22:49;;;;;;;0.70;0.70;;;;;;;15.71;72.10;99718.59;6296449;28;20048;-70
2023/06/12 05:25:49;;;;;;;3.83;1.15;;;;;;;15.95;71.76;99715.59;6296328;28;20090;-71
2023/06/12 05:28:50;;;;;;;1.23;1.02;;;;;;;16.14;70.28;99722.66;6296227;28;20055;-71
2023/06/12 05:31:51;;;;;;;1.20;1.00;;;;;;;16.17;70.11;99716.31;6295302;28;20132;-71
2023/06/12 05:34:52;;;;;;;1.42;1.00;;;;;;;16.14;70.39;99714.78;6296238;28;20127;-70
2023/06/12 05:37:54;;;;;;;0.70;0.70;;;;;;;16.47;69.66;99725.88;6296508;28;20049;-70
2023/06/12 05:40:55;;;;;;;1.63;0.75;;;;;;;16.47;68.12;99724.09;6295035;28;20079;-71
2023/06/12 05:43:56;;;;;;;2.05;1.17;;;;;;;16.51;67.32;99717.56;6296161;28;20068;-71
2023/06/12 05:46:59;;;;;;;5.25;1.15;;;;;;;16.50;66.79;99712.44;6296325;28;20127;-70
2023/06/12 05:50:00;;;;;;;2.63;1.35;;;;;;;16.42;65.81;99721.03;6296105;28;20143;-71
2023/06/12 05:53:01;;;;;;;3.17;1.00;;;;;;;16.51;66.04;99728.09;6298731;28;20051;-70
2023/06/12 05:56:02;;;;;;;1.05;0.90;;;;;;;16.80;66.63;99729.03;6300588;28;20048;-70
2023/06/12 05:59:03;;;;;;;1.38;1.10;;;;;;;17.04;65.45;99728.59;6299437;28;20391;-71
2023/06/12 06:02:04;;;;;;;2.78;1.00;;;;;;;17.15;65.39;99727.56;6299200;28;20056;-70
2023/06/12 06:05:11;;;;;;;1.75;0.85;;;;;;;17.14;63.24;99726.75;6299371;28;20048;-70
2023/06/12 06:08:12;;;;;;;0.85;0.80;;;;;;;17.40;62.95;99724.31;6299221;28;20181;-70
2023/06/12 06:11:16;;;;;;;1.80;1.17;;;;;;;17.50;64.13;99729.50;6299222;28;20068;-70
2023/06/12 06:14:18;;;;;;;1.83;1.02;;;;;;;17.66;62.29;99731.53;6298664;28;20071;-70
2023/06/12 06:17:20;;;;;;;2.08;1.35;;;;;;;17.67;63.65;99738.47;6298513;28;20060;-71
2023/06/12 06:20:21;;;;;;;0.68;0.68;;;;;;;17.77;62.14;99731.34;6298579;28;20098;-71
2023/06/12 06:23:22;;;;;;;2.35;1.00;;;;;;;17.88;61.87;99741.72;6298464;28;20044;-70
2023/06/12 06:26:22;;;;;;;1.85;1.02;;;;;;;18.18;61.68;99741.50;6299694;28;20052;-70
2023/06/12 06:29:23;;;;;;;1.58;0.82;;;;;;;18.12;61.42;99745.59;6299390;28;20053;-70
2023/06/12 06:32:26;;;;;;;0.82;0.80;;;;;;;18.06;59.93;99748.84;6298309;28;20055;-72
2023/06/12 06:35:27;;;;;;;2.50;0.93;;;;;;;18.16;61.47;99739.03;6298242;28;20068;-71
2023/06/12 06:38:28;;;;;;;2.28;0.95;;;;;;;18.31;60.48;99741.97;6298459;28;20474;-71
2023/06/12 06:41:28;;;;;;;1.42;0.98;;;;;;;18.26;59.51;99737.16;6298344;28;20056;-71
2023/06/12 06:44:29;;;;;;;1.45;1.00;;;;;;;18.91;60.82;99728.94;6299367;28;20053;-72
2023/06/12 06:47:30;;;;;;;5.90;1.63;;;;;;;18.82;57.71;99745.75;6299408;28;20074;-71
2023/06/12 06:50:35;;;;;;;2.72;1.20;;;;;;;18.86;58.50;99747.09;6299324;28;20438;-71
2023/06/12 06:53:36;;;;;;;0.82;0.80;;;;;;;18.74;58.26;99745.66;6298124;28;20513;-71
2023/06/12 06:56:36;;;;;;;1.42;0.80;;;;;;;18.49;58.01;99744.59;6297954;28;20131;-71
2023/06/12 06:59:37;;;;;;;1.45;0.90;;;;;;;18.84;58.65;99746.41;6297886;28;20056;-70
2023/06/12 07:02:40;;;;;;;1.80;1.10;;;;;;;18.90;57.71;99756.38;6297743;28;20056;-71
2023/06/12 07:05:41;;;;;;;1.25;0.80;;;;;;;19.09;57.66;99754.50;6298993;28;20049;-71
2023/06/12 07:08:47;;;;;;;2.63;1.38;;;;;;;19.02;58.32;99749.00;6297642;28;20053;-71
2023/06/12 07:11:48;;;;;;;7.93;1.00;;;;;;;19.10;57.22;99753.50;6297620;28;20053;-71
2023/06/12 07:14:51;;;;;;;2.00;1.10;;;;;;;19.29;56.63;99760.38;6298981;28;20083;-70
2023/06/12 07:17:54;;;;;;;5.03;0.98;;;;;;;19.20;57.01;99764.81;6298386;28;20049;-71
2023/06/12 07:20:57;;;;;;;2.30;1.35;;;;;;;19.63;57.69;99757.75;6297801;28;20155;-71
2023/06/12 07:23:58;;;;;;;4.07;1.10;;;;;;;19.67;56.60;99760.91;6298032;28;20163;-71
2023/06/12 07:27:01;;;;;;;1.15;1.00;;;;;;;19.57;56.03;99762.84;6297988;28;20101;-71
2023/06/12 07:30:04;;;;;;;1.88;1.05;;;;;;;19.22;57.57;99773.41;6296643;28;20053;-71
2023/06/12 07:33:05;;;;;;;4.00;1.25;;;;;;;18.95;56.04;99760.38;6296876;28;20052;-70
2023/06/12 07:36:05;;;;;;;3.42;1.17;;;;;;;19.57;57.18;99771.63;6296787;28;20052;-71
2023/06/12 07:39:08;;;;;;;2.72;1.10;;;;;;;19.65;55.92;99769.00;6296927;28;20049;-72
2023/06/12 07:42:11;;;;;;;2.55;1.08;;;;;;;19.87;56.51;99772.09;6296532;28;20052;-71
2023/06/12 07:45:12;;;;;;;5.18;1.40;;;;;;;20.03;55.23;99777.44;6296479;28;20052;-72
2023/06/12 07:48:13;;;;;;;0.83;0.83;;;;;;;20.07;54.58;99770.00;6297778;28;20048;-72
2023/06/12 07:51:14;;;;;;;3.10;1.20;;;;;;;20.18;55.27;99771.50;6297934;28;20056;-71
2023/06/12 07:54:15;;;;;;;7.43;0.97;;;;;;;20.58;54.11;99770.75;6296380;28;20133;-72
2023/06/12 07:57:16;;;;;;;0.97;0.70;;;;;;;20.28;54.88;99765.09;6297607;28;20057;-72
2023/06/12 08:00:20;;;;;;;4.07;1.10;;;;;;;20.65;52.91;99769.13;6297570;28;20052;-72
2023/06/12 08:03:24;;;;;;;2.70;1.23;;;;;;;20.82;55.97;99769.13;6296148;28;20410;-72
2023/06/12 08:06:25;;;;;;;2.45;0.85;;;;;;;20.36;53.97;99763.44;6297378;28;20052;-72
2023/06/12 08:09:26;;;;;;;4.53;1.17;;;;;;;20.45;53.99;99770.41;6296041;28;20062;-71
2023/06/12 08:12:27;;;;;;;1.35;1.00;;;;;;;20.64;54.22;99767.44;6297106;28;20048;-71
2023/06/12 08:15:27;;;;;;;3.40;1.40;;;;;;;20.92;55.04;99775.06;6295602;28;20045;-71
2023/06/12 08:18:28;;;;;;;1.27;1.17;;;;;;;21.07;55.02;99768.09;6297298;28;20048;-73
2023/06/12 08:21:29;;;;;;;1.48;0.73;;;;;;;20.95;53.74;99780.03;6296922;28;20052;-72
2023/06/12 08:24:30;;;;;;;2.25;1.05;;;;;;;20.53;55.10;99778.38;6296960;28;20051;-72
2023/06/12 08:27:34;;;;;;;6.22;1.55;;;;;;;20.63;54.39;99779.06;6295827;28;20055;-72
2023/06/12 08:30:34;;;;;;;2.10;1.17;;;;;;;21.06;53.52;99784.16;6296778;28;20052;-72
2023/06/12 08:33:35;;;;;;;2.93;1.00;;;;;;;21.06;53.40;99778.84;6295825;28;20510;-72
2023/06/12 08:36:36;;;;;;;1.67;0.90;;;;;;;21.31;52.46;99780.47;6295637;28;20380;-72
2023/06/12 08:39:37;;;;;;;2.53;1.00;;;;;;;21.59;51.91;99777.41;6296971;28;20059;-72
2023/06/12 08:42:44;;;;;;;1.30;1.00;;;;;;;21.88;52.87;99765.34;6297179;28;20052;-72
2023/06/12 08:45:54;;;;;;;2.95;1.10;;;;;;;21.99;52.16;99772.94;6295244;28;20086;-72
2023/06/12 08:48:55;;;;;;;1.52;1.00;;;;;;;22.32;51.78;99770.94;6296659;28;20045;-72
2023/06/12 08:51:56;;;;;;;4.70;1.27;;;;;;;22.12;49.27;99767.88;6296618;28;20060;-72
2023/06/12 08:54:57;;;;;;;1.30;1.00;;;;;;;22.29;51.05;99773.13;6295367;28;20402;-72
2023/06/12 08:57:59;;;;;;;1.38;1.10;;;;;;;22.15;50.63;99764.03;6295770;28;20094;-72
2023/06/12 09:01:02;;;;;;;1.83;1.15;;;;;;;22.33;49.56;99777.88;6296546;28;20643;-72
2023/06/12 09:04:09;;;;;;;1.10;0.85;;;;;;;22.08;51.19;99769.22;6296415;28;20110;-72
2023/06/12 09:07:11;;;;;;;3.45;1.13;;;;;;;22.28;47.96;99772.28;6296566;28;20053;-73
2023/06/12 09:10:12;;;;;;;2.20;0.93;;;;;;;22.55;49.73;99764.78;6295435;28;20135;-72
2023/06/12 09:13:12;;;;;;;1.00;0.90;;;;;;;22.28;50.21;99776.78;6295379;28;20049;-71
2023/06/12 09:16:13;;;;;;;0.87;0.83;;;;;;;21.30;48.43;99770.84;6296323;28;20182;-72
2023/06/12 09:19:14;;;;;;;1.10;0.90;;;;;;;21.89;48.66;99772.31;6295284;28;20051;-72
2023/06/12 09:22:17;;;;;;;1.40;0.90;;;;;;;22.19;49.12;99767.16;6295097;28;20048;-72
2023/06/12 09:25:19;;;;;;;2.45;0.90;;;;;;;22.00;46.88;99769.28;6294891;28;20084;-72
2023/06/12 09:28:27;;;;;;;0.70;0.60;;;;;;;22.30;46.49;99775.59;6299629;28;20044;-72
2023/06/12 09:31:27;;;;;;;0.82;0.60;;;;;;;22.64;46.71;99774.34;6300999;28;20140;-71
2023/06/12 09:34:31;;;;;;;1.30;1.00;;;;;;;22.99;48.07;99772.03;6299575;28;20044;-72
2023/06/12 09:37:32;;;;;;;2.40;1.00;;;;;;;22.36;47.98;99776.69;6300969;28;20057;-72
2023/06/12 09:40:40;;;;;;;7.57;1.27;;;;;;;22.77;47.70;99767.59;6300680;28;20143;-72
2023/06/12 09:43:41;;;;;;;1.30;1.02;;;;;;;23.04;46.80;99768.84;6300552;28;20064;-72
2023/06/12 09:46:42;;;;;;;0.90;0.80;;;;;;;22.54;49.39;99765.78;6299412;28;20102;-73
2023/06/12 09:49:42;;;;;;;2.40;0.90;;;;;;;21.69;48.30;99764.78;6300402;28;20102;-72
2023/06/12 09:52:49;;;;;;;1.10;0.80;;;;;;;21.92;48.95;99758.69;6300550;28;20052;-72
2023/06/12 09:55:51;;;;;;;1.13;0.77;;;;;;;22.30;47.95;99764.97;6299212;28;20052;-71
2023/06/12 09:58:53;;;;;;;;;;;;;;;22.26;49.15;99766.31;6299806;28;20063;-72
2023/06/12 10:02:00;;;;;;;1.33;0.70;;;;;;;22.88;47.86;99759.19;6299068;28;20358;-72
2023/06/12 10:05:05;;;;;;;1.88;0.90;;;;;;;22.73;48.38;99761.78;6299125;28;20057;-71
2023/06/12 10:08:07;;;;;;;2.90;0.90;;;;;;;23.32;48.23;99758.44;6299911;28;20645;-72
2023/06/12 10:11:08;;;;;;;1.35;0.90;;;;;;;23.54;44.30;99752.19;6299311;28;20106;-73
2023/06/12 10:14:09;;;;;;;1.20;0.85;;;;;;;24.01;42.99;99749.25;6298833;28;20053;-72
2023/06/12 10:17:14;;;;;;;1.20;0.80;;;;;;;23.10;45.45;99754.81;6299120;28;20059;-72
2023/06/12 10:20:16;;;;;;;0.95;0.77;;;;;;;24.29;44.41;99752.03;6299993;28;20384;-72
2023/06/12 10:23:19;;;;;;;2.42;1.35;;;;;;;22.90;45.94;99749.19;6298770;28;20426;-73
2023/06/12 10:26:22;;;;;;;1.67;0.73;;;;;;;23.48;47.31;99747.59;6299515;28;20055;-72
2023/06/12 10:29:30;;;;;;;1.17;0.70;;;;;;;23.86;45.44;99746.63;6298348;28;20510;-72
2023/06/12 10:32:32;;;;;;;1.77;1.00;;;;;;;23.77;46.41;99745.13;6299671;28;20053;-72
2023/06/12 10:35:33;;;;;;;;;;;;;;;23.88;47.41;99745.44;6299797;28;20525;-72
2023/06/12 10:38:43;;;;;;;1.92;0.80;;;;;;;23.38;46.56;99740.91;6299243;28;20041;-72
2023/06/12 10:41:55;;;;;;;0.88;0.70;;;;;;;23.72;45.00;99742.97;6298247;28;20131;-72
2023/06/12 10:44:55;;;;;;;2.88;0.85;;;;;;;23.26;45.63;99732.53;6297969;28;20050;-72
2023/06/12 10:48:03;;;;;;;3.63;0.90;;;;;;;23.28;45.90;99738.50;6298074;28;20057;-73
2023/06/12 10:51:03;;;;;;;0.60;0.52;;;;;;;23.29;45.05;99726.88;6299306;28;20052;-72
2023/06/12 10:54:14;;;;;;;1.37;0.90;;;;;;;24.26;43.54;99739.09;6297763;28;20048;-72
2023/06/12 10:57:15;;;;;;;1.02;0.73;;;;;;;24.06;43.32;99742.34;6299180;28;20052;-72
2023/06/12 11:00:17;;;;;;;1.23;0.98;;;;;;;24.07;43.68;99738.69;6297579;28;20084;-72
2023/06/12 11:03:26;;;;;;;3.45;0.80;;;;;;;23.84;43.58;99741.50;6297829;28;20045;-72
2023/06/12 11:06:28;;;;;;;0.63;0.63;;;;;;;24.14;44.22;99738.75;6298631;28;20070;-72
2023/06/12 11:09:44;;;;;;;1.10;1.00;;;;;;;24.40;43.67;99732.88;6298854;28;20048;-72
2023/06/12 11:12:51;;;;;;;1.95;0.82;;;;;;;24.20;45.64;99737.19;6297396;28;20053;-72
2023/06/12 11:15:53;;;;;;;0.95;0.60;;;;;;;24.31;41.82;99737.47;6298544;28;20044;-71
2023/06/12 11:19:04;;;;;;;;;;;;;;;24.28;44.44;99745.88;6298528;28;20479;-72
2023/06/12 11:22:05;;;;;;;4.57;0.70;;;;;;;24.14;44.33;99728.09;6297777;28;19920;-72
2023/06/12 11:25:06;;;;;;;1.00;0.70;;;;;;;24.25;44.25;99745.41;6296955;28;20052;-72
2023/06/12 11:28:07;;;;;;;0.50;0.50;;;;;;;23.90;43.17;99724.75;6297006;28;20056;-72
2023/06/12 11:31:08;;;;;;;1.00;0.67;;;;;;;24.09;43.34;99723.34;6298276;28;20478;-72
2023/06/12 11:34:09;;;;;;;2.70;0.75;;;;;;;24.54;43.89;99725.81;6298344;28;20056;-72
2023/06/12 11:37:25;;;;;;;1.00;0.90;;;;;;;24.87;44.39;99720.75;6297160;28;20139;-71
2023/06/12 11:40:29;;;;;;;0.40;0.40;;;;;;;25.10;43.60;99720.47;6298337;28;20048;-72
2023/06/12 11:43:31;;;;;;;0.85;0.75;;;;;;;24.96;43.54;99713.41;6297269;28;20044;-73
2023/06/12 11:46:32;;;;;;;1.63;0.60;;;;;;;24.09;44.50;99707.34;6297599;28;20044;-72
2023/06/12 11:49:36;;;;;;;1.13;0.83;;;;;;;24.25;43.35;99721.44;6294003;28;20059;-72
2023/06/12 11:52:40;;;;;;;3.30;0.77;;;;;;;24.49;43.09;99707.72;6296173;28;20461;-72
2023/06/12 11:55:41;;;;;;;0.85;0.63;;;;;;;24.29;42.81;99710.19;6297747;28;20478;-73
2023/06/12 11:58:44;;;;;;;1.00;0.68;;;;;;;24.47;42.60;99708.91;6296403;28;20051;-73
2023/06/12 12:01:47;;;;;;;0.88;0.80;;;;;;;25.11;43.78;99719.44;6297961;28;20134;-72
2023/06/12 12:04:50;;;;;;;2.05;0.88;;;;;;;24.59;43.03;99706.59;6296204;28;20044;-72
2023/06/12 12:07:57;;;;;;;0.70;0.68;;;;;;;24.32;42.33;99706.34;6296546;28;20048;-72
2023/06/12 12:10:58;;;;;;;0.65;0.65;;;;;;;24.29;43.54;99706.69;6296097;28;20383;-72
2023/06/12 12:14:01;;;;;;;1.40;0.80;;;;;;;24.28;44.22;99697.88;6297631;28;20059;-72
2023/06/12 12:17:06;;;;;;;0.95;0.85;;;;;;;24.13;42.39;99702.44;6296988;28;20411;-73
2023/06/12 12:20:14;;;;;;;0.52;0.52;;;;;;;23.96;43.98;99699.19;6297193;28;20076;-73
2023/06/12 12:23:15;;;;;;;0.38;0.38;;;;;;;24.30;43.14;99689.69;6297225;28;20479;-72
2023/06/12 12:26:18;;;;;;;0.45;0.40;;;;;;;24.44;42.54;99693.28;6297106;28;20051;-72
2023/06/12 12:29:20;;;;;;;2.85;0.90;;;;;;;24.13;43.21;99705.09;6296124;28;20057;-72
2023/06/12 12:32:21;;;;;;;0.98;0.70;;;;;;;24.07;43.50;99701.38;6295817;28;20052;-73
2023/06/12 12:35:23;;;;;;;0.83;0.60;;;;;;;24.25;42.60;99692.09;6297121;28;20487;-72
2023/06/12 12:38:24;;;;;;;1.20;0.60;;;;;;;23.93;42.79;99696.94;6295818;28;20051;-72
2023/06/12 12:41:26;;;;;;;3.03;0.60;;;;;;;24.53;42.01;99698.31;6297252;28;20048;-73
2023/06/12 12:44:27;;;;;;;0.85;0.70;;;;;;;24.80;42.18;99695.84;6296501;28;20057;-72
2023/06/12 12:47:28;;;;;;;0.50;0.50;;;;;;;24.70;43.39;99698.03;6296983;28;20048;-73
2023/06/12 12:50:28;;;;;;;1.00;0.77;;;;;;;24.33;41.88;99692.78;6295704;28;20052;-72
2023/06/12 12:53:29;;;;;;;0.77;0.60;;;;;;;24.31;42.14;99697.50;6295796;28;20074;-72
2023/06/12 12:56:30;;;;;;;0.93;0.63;;;;;;;23.77;43.15;99683.84;6296797;28;20041;-72
2023/06/12 12:59:30;;;;;;;2.70;0.50;;;;;;;23.96;41.96;99699.19;6297013;28;20483;-72
2023/06/12 13:02:31;;;;;;;0.87;0.50;;;;;;;24.16;42.49;99695.94;6300685;28;20056;-72
2023/06/12 13:05:32;;;;;;;1.20;0.80;;;;;;;23.81;44.32;99695.78;6300493;28;20045;-72
2023/06/12 13:08:33;;;;;;;2.77;0.60;;;;;;;24.29;43.80;99696.03;6300761;28;20581;-72
2023/06/12 13:11:33;;;;;;;1.60;0.67;;;;;;;24.26;43.60;99696.44;6300393;28;20048;-72
2023/06/12 13:14:37;;;;;;;1.17;0.63;;;;;;;24.08;42.10;99697.69;6300635;28;20500;-72
2023/06/12 13:17:38;;;;;;;0.55;0.50;;;;;;;24.19;42.63;99699.00;6301574;28;20048;-72
2023/06/12 13:20:39;;;;;;;0.85;0.70;;;;;;;24.39;42.56;99701.88;6300314;28;20053;-72
2023/06/12 13:23:40;;;;;;;2.28;0.80;;;;;;;24.18;41.38;99694.72;6301686;28;20128;-72
2023/06/12 13:26:41;;;;;;;1.17;0.77;;;;;;;24.23;42.45;99689.63;6300418;28;20131;-71
2023/06/12 13:29:42;;;;;;;0.40;0.40;;;;;;;24.28;43.07;99694.41;6300791;28;20486;-72
2023/06/12 13:32:43;;;;;;;4.47;0.50;;;;;;;24.42;40.79;99690.84;6300436;28;20063;-72
2023/06/12 13:35:45;;;;;;;2.60;0.70;;;;;;;24.36;40.22;99696.94;6300146;28;20048;-72
2023/06/12 13:38:46;;;;;;;0.93;0.60;;;;;;;23.94;43.96;99695.91;6275163;28;20080;-72
2023/06/12 13:41:47;;;;;;;0.45;0.40;;;;;;;23.98;42.14;99691.84;6275115;28;20057;-71
2023/06/12 13:44:48;;;;;;;1.95;0.57;;;;;;;24.47;44.10;99688.41;6275876;28;20102;-73
2023/06/12 13:47:49;;;;;;;0.40;0.40;;;;;;;24.64;42.02;99696.16;6276609;28;20376;-72
2023/06/12 13:50:52;;;;;;;0.50;0.50;;;;;;;24.43;41.15;99681.81;6275275;28;20053;-72
2023/06/12 13:53:53;;;;;;;0.50;0.50;;;;;;;24.42;41.16;99684.66;6276713;28;20491;-72
2023/06/12 13:56:54;;;;;;;2.28;0.73;;;;;;;24.65;42.85;99701.28;6275223;28;20076;-72
2023/06/12 13:59:55;;;;;;;1.03;0.93;;;;;;;24.23;42.38;99686.13;6276316;28;20055;-72
2023/06/12 14:02:56;;;;;;;1.92;0.70;;;;;;;24.62;41.66;99693.66;6276148;28;20053;-72
2023/06/12 14:05:57;;;;;;;0.60;0.43;;;;;;;24.28;42.80;99695.22;6275710;28;20487;-72
2023/06/12 14:08:57;;;;;;;0.50;0.50;;;;;;;24.03;41.26;99701.94;6274282;28;20049;-72
2023/06/12 14:11:58;;;;;;;1.20;0.50;;;;;;;23.39;42.38;99699.94;6273691;28;20136;-72
2023/06/12 14:14:59;;;;;;;0.53;0.50;;;;;;;23.25;43.21;99699.78;6273897;28;20055;-72
2023/06/12 14:18:02;;;;;;;1.30;0.60;;;;;;;23.10;43.45;99678.50;6275125;28;20045;-72
2023/06/12 14:21:07;;;;;;;0.60;0.60;;;;;;;23.53;43.41;99696.44;6274901;28;20526;-72